sensor_id;sensor_type;location;lat;lon;timestamp;P1;durP1;ratioP1;P2;durP2;ratioP2
62633;SDS011;48704;50.534;6.442;2023-07-02T00:00:06;16.90;;;4.95;;
62633;SDS011;48704;50.534;6.442;2023-07-02T00:02:32;15.55;;;5.47;;
62633;SDS011;48704;50.534;6.442;2023-07-02T00:04:58;14.20;;;5.50;;
62633;SDS011;48704;50.534;6.442;2023-07-02T00:07:23;15.40;;;4.90;;
62633;SDS011;48704;50.534;6.442;2023-07-02T00:09:50;14.30;;;5.07;;
62633;SDS011;48704;50.534;6.442;2023-07-02T00:12:16;15.52;;;5.95;;
62633;SDS011;48704;50.534;6.442;2023-07-02T00:14:41;15.70;;;6.25;;
62633;SDS011;48704;50.534;6.442;2023-07-02T00:17:06;16.92;;;5.53;;
62633;SDS011;48704;50.534;6.442;2023-07-02T00:19:32;11.77;;;6.05;;
62633;SDS011;48704;50.534;6.442;2023-07-02T00:21:57;15.98;;;5.95;;
62633;SDS011;48704;50.534;6.442;2023-07-02T00:24:23;10.65;;;5.95;;
62633;SDS011;48704;50.534;6.442;2023-07-02T00:26:48;13.15;;;6.40;;
62633;SDS011;48704;50.534;6.442;2023-07-02T00:29:13;16.60;;;6.35;;
62633;SDS011;48704;50.534;6.442;2023-07-02T00:31:39;20.58;;;6.63;;
62633;SDS011;48704;50.534;6.442;2023-07-02T00:34:04;16.55;;;6.25;;
62633;SDS011;48704;50.534;6.442;2023-07-02T00:36:31;13.52;;;6.82;;
62633;SDS011;48704;50.534;6.442;2023-07-02T00:38:56;18.90;;;5.85;;
62633;SDS011;48704;50.534;6.442;2023-07-02T00:41:22;16.90;;;7.57;;
62633;SDS011;48704;50.534;6.442;2023-07-02T00:43:47;15.93;;;7.47;;
62633;SDS011;48704;50.534;6.442;2023-07-02T00:46:14;16.13;;;7.53;;
62633;SDS011;48704;50.534;6.442;2023-07-02T00:48:45;19.92;;;7.22;;
62633;SDS011;48704;50.534;6.442;2023-07-02T00:51:13;21.92;;;7.75;;
62633;SDS011;48704;50.534;6.442;2023-07-02T00:53:40;18.60;;;7.35;;
62633;SDS011;48704;50.534;6.442;2023-07-02T00:56:05;17.48;;;8.02;;
62633;SDS011;48704;50.534;6.442;2023-07-02T00:58:32;20.08;;;7.57;;
62633;SDS011;48704;50.534;6.442;2023-07-02T01:01:01;16.20;;;6.78;;
62633;SDS011;48704;50.534;6.442;2023-07-02T01:03:27;16.85;;;7.60;;
62633;SDS011;48704;50.534;6.442;2023-07-02T01:05:54;22.02;;;8.20;;
62633;SDS011;48704;50.534;6.442;2023-07-02T01:08:19;16.35;;;7.55;;
62633;SDS011;48704;50.534;6.442;2023-07-02T01:10:44;21.02;;;7.57;;
62633;SDS011;48704;50.534;6.442;2023-07-02T01:13:12;16.98;;;8.43;;
62633;SDS011;48704;50.534;6.442;2023-07-02T01:15:42;18.77;;;7.30;;
62633;SDS011;48704;50.534;6.442;2023-07-02T01:18:09;18.50;;;7.80;;
62633;SDS011;48704;50.534;6.442;2023-07-02T01:20:36;19.38;;;8.27;;
62633;SDS011;48704;50.534;6.442;2023-07-02T01:23:03;21.27;;;8.45;;
62633;SDS011;48704;50.534;6.442;2023-07-02T01:25:29;21.35;;;8.25;;
62633;SDS011;48704;50.534;6.442;2023-07-02T01:27:54;18.20;;;8.65;;
62633;SDS011;48704;50.534;6.442;2023-07-02T01:30:21;16.83;;;8.23;;
62633;SDS011;48704;50.534;6.442;2023-07-02T01:32:46;22.48;;;8.30;;
62633;SDS011;48704;50.534;6.442;2023-07-02T01:35:12;19.98;;;8.82;;
62633;SDS011;48704;50.534;6.442;2023-07-02T01:37:37;21.38;;;8.63;;
62633;SDS011;48704;50.534;6.442;2023-07-02T01:40:03;23.48;;;9.52;;
62633;SDS011;48704;50.534;6.442;2023-07-02T01:42:33;24.88;;;9.75;;
62633;SDS011;48704;50.534;6.442;2023-07-02T01:44:58;22.65;;;9.23;;
62633;SDS011;48704;50.534;6.442;2023-07-02T01:47:23;21.98;;;9.13;;
62633;SDS011;48704;50.534;6.442;2023-07-02T01:49:49;26.98;;;9.23;;
62633;SDS011;48704;50.534;6.442;2023-07-02T01:52:14;23.83;;;9.00;;
62633;SDS011;48704;50.534;6.442;2023-07-02T01:54:40;23.52;;;9.68;;
62633;SDS011;48704;50.534;6.442;2023-07-02T01:57:06;24.27;;;9.50;;
62633;SDS011;48704;50.534;6.442;2023-07-02T01:59:31;22.35;;;9.55;;
62633;SDS011;48704;50.534;6.442;2023-07-02T02:01:56;17.45;;;9.05;;
62633;SDS011;48704;50.534;6.442;2023-07-02T02:04:22;20.95;;;9.98;;
62633;SDS011;48704;50.534;6.442;2023-07-02T02:06:47;24.90;;;9.77;;
62633;SDS011;48704;50.534;6.442;2023-07-02T02:09:12;26.65;;;10.90;;
62633;SDS011;48704;50.534;6.442;2023-07-02T02:11:39;22.88;;;9.85;;
62633;SDS011;48704;50.534;6.442;2023-07-02T02:14:05;22.52;;;10.30;;
62633;SDS011;48704;50.534;6.442;2023-07-02T02:16:31;21.90;;;9.68;;
62633;SDS011;48704;50.534;6.442;2023-07-02T02:18:58;31.95;;;10.55;;
62633;SDS011;48704;50.534;6.442;2023-07-02T02:21:24;25.52;;;10.95;;
62633;SDS011;48704;50.534;6.442;2023-07-02T02:23:49;25.95;;;11.40;;
62633;SDS011;48704;50.534;6.442;2023-07-02T02:26:14;30.20;;;11.40;;
62633;SDS011;48704;50.534;6.442;2023-07-02T02:28:41;25.45;;;11.00;;
62633;SDS011;48704;50.534;6.442;2023-07-02T02:31:07;24.40;;;10.52;;
62633;SDS011;48704;50.534;6.442;2023-07-02T02:33:32;29.05;;;11.00;;
62633;SDS011;48704;50.534;6.442;2023-07-02T02:35:58;27.25;;;11.23;;
62633;SDS011;48704;50.534;6.442;2023-07-02T02:38:23;29.08;;;11.40;;
62633;SDS011;48704;50.534;6.442;2023-07-02T02:40:48;29.45;;;12.02;;
62633;SDS011;48704;50.534;6.442;2023-07-02T02:43:13;26.90;;;11.57;;
62633;SDS011;48704;50.534;6.442;2023-07-02T02:45:41;26.50;;;11.98;;
62633;SDS011;48704;50.534;6.442;2023-07-02T02:48:07;27.52;;;12.23;;
62633;SDS011;48704;50.534;6.442;2023-07-02T02:50:32;33.65;;;12.32;;
62633;SDS011;48704;50.534;6.442;2023-07-02T02:52:57;26.05;;;12.35;;
62633;SDS011;48704;50.534;6.442;2023-07-02T02:55:23;29.63;;;12.95;;
62633;SDS011;48704;50.534;6.442;2023-07-02T02:57:48;31.20;;;12.20;;
62633;SDS011;48704;50.534;6.442;2023-07-02T03:00:13;34.10;;;13.40;;
62633;SDS011;48704;50.534;6.442;2023-07-02T03:02:39;28.10;;;11.80;;
62633;SDS011;48704;50.534;6.442;2023-07-02T03:05:05;28.83;;;12.63;;
62633;SDS011;48704;50.534;6.442;2023-07-02T03:07:31;29.30;;;12.30;;
62633;SDS011;48704;50.534;6.442;2023-07-02T03:09:57;30.52;;;12.63;;
62633;SDS011;48704;50.534;6.442;2023-07-02T03:12:22;31.33;;;13.43;;
62633;SDS011;48704;50.534;6.442;2023-07-02T03:14:48;28.02;;;12.10;;
62633;SDS011;48704;50.534;6.442;2023-07-02T03:17:18;31.73;;;12.55;;
62633;SDS011;48704;50.534;6.442;2023-07-02T03:19:44;29.35;;;13.02;;
62633;SDS011;48704;50.534;6.442;2023-07-02T03:22:09;34.28;;;14.05;;
62633;SDS011;48704;50.534;6.442;2023-07-02T03:24:34;28.05;;;12.75;;
62633;SDS011;48704;50.534;6.442;2023-07-02T03:27:00;23.13;;;12.25;;
62633;SDS011;48704;50.534;6.442;2023-07-02T03:29:25;31.73;;;12.63;;
62633;SDS011;48704;50.534;6.442;2023-07-02T03:31:50;29.67;;;13.02;;
62633;SDS011;48704;50.534;6.442;2023-07-02T03:34:15;33.83;;;13.00;;
62633;SDS011;48704;50.534;6.442;2023-07-02T03:36:41;30.17;;;13.25;;
62633;SDS011;48704;50.534;6.442;2023-07-02T03:39:06;29.10;;;13.13;;
62633;SDS011;48704;50.534;6.442;2023-07-02T03:41:31;34.65;;;13.43;;
62633;SDS011;48704;50.534;6.442;2023-07-02T03:43:56;35.13;;;13.35;;
62633;SDS011;48704;50.534;6.442;2023-07-02T03:46:22;30.77;;;13.05;;
62633;SDS011;48704;50.534;6.442;2023-07-02T03:48:47;34.55;;;14.15;;
62633;SDS011;48704;50.534;6.442;2023-07-02T03:51:13;30.98;;;13.85;;
62633;SDS011;48704;50.534;6.442;2023-07-02T03:53:39;30.17;;;13.65;;
62633;SDS011;48704;50.534;6.442;2023-07-02T03:56:05;31.58;;;14.32;;
62633;SDS011;48704;50.534;6.442;2023-07-02T03:58:30;34.03;;;14.45;;
62633;SDS011;48704;50.534;6.442;2023-07-02T04:00:55;40.95;;;13.95;;
62633;SDS011;48704;50.534;6.442;2023-07-02T04:03:21;37.47;;;15.73;;
62633;SDS011;48704;50.534;6.442;2023-07-02T04:05:46;36.15;;;15.48;;
62633;SDS011;48704;50.534;6.442;2023-07-02T04:08:11;38.72;;;15.45;;
62633;SDS011;48704;50.534;6.442;2023-07-02T04:10:36;40.15;;;14.77;;
62633;SDS011;48704;50.534;6.442;2023-07-02T04:13:02;39.75;;;16.40;;
62633;SDS011;48704;50.534;6.442;2023-07-02T04:15:27;39.15;;;15.27;;
62633;SDS011;48704;50.534;6.442;2023-07-02T04:17:53;34.40;;;14.13;;
62633;SDS011;48704;50.534;6.442;2023-07-02T04:20:19;39.08;;;15.95;;
62633;SDS011;48704;50.534;6.442;2023-07-02T04:22:45;40.88;;;16.35;;
62633;SDS011;48704;50.534;6.442;2023-07-02T04:25:14;35.53;;;15.68;;
62633;SDS011;48704;50.534;6.442;2023-07-02T04:27:43;33.58;;;15.23;;
62633;SDS011;48704;50.534;6.442;2023-07-02T04:30:09;34.35;;;16.05;;
62633;SDS011;48704;50.534;6.442;2023-07-02T04:32:35;42.78;;;16.73;;
62633;SDS011;48704;50.534;6.442;2023-07-02T04:35:01;33.90;;;16.20;;
62633;SDS011;48704;50.534;6.442;2023-07-02T04:37:27;38.50;;;15.15;;
62633;SDS011;48704;50.534;6.442;2023-07-02T04:39:53;36.75;;;16.05;;
62633;SDS011;48704;50.534;6.442;2023-07-02T04:42:19;40.58;;;17.05;;
62633;SDS011;48704;50.534;6.442;2023-07-02T04:44:44;39.70;;;15.18;;
62633;SDS011;48704;50.534;6.442;2023-07-02T04:47:10;37.40;;;16.30;;
62633;SDS011;48704;50.534;6.442;2023-07-02T04:49:35;47.55;;;16.25;;
62633;SDS011;48704;50.534;6.442;2023-07-02T04:52:00;38.63;;;15.55;;
62633;SDS011;48704;50.534;6.442;2023-07-02T04:54:25;43.58;;;16.67;;
62633;SDS011;48704;50.534;6.442;2023-07-02T04:56:51;46.60;;;18.83;;
62633;SDS011;48704;50.534;6.442;2023-07-02T04:59:16;45.15;;;19.15;;
62633;SDS011;48704;50.534;6.442;2023-07-02T05:01:42;39.65;;;18.73;;
62633;SDS011;48704;50.534;6.442;2023-07-02T05:04:09;43.50;;;18.13;;
62633;SDS011;48704;50.534;6.442;2023-07-02T05:06:36;44.33;;;17.98;;
62633;SDS011;48704;50.534;6.442;2023-07-02T05:09:01;39.97;;;17.48;;
62633;SDS011;48704;50.534;6.442;2023-07-02T05:11:27;56.03;;;18.13;;
62633;SDS011;48704;50.534;6.442;2023-07-02T05:13:52;44.53;;;18.05;;
62633;SDS011;48704;50.534;6.442;2023-07-02T05:16:17;40.05;;;17.60;;
62633;SDS011;48704;50.534;6.442;2023-07-02T05:18:42;42.65;;;17.20;;
62633;SDS011;48704;50.534;6.442;2023-07-02T05:21:08;45.70;;;17.63;;
62633;SDS011;48704;50.534;6.442;2023-07-02T05:23:33;43.65;;;17.38;;
62633;SDS011;48704;50.534;6.442;2023-07-02T05:25:58;41.55;;;17.13;;
62633;SDS011;48704;50.534;6.442;2023-07-02T05:28:24;39.45;;;16.75;;
62633;SDS011;48704;50.534;6.442;2023-07-02T05:30:50;43.63;;;16.60;;
62633;SDS011;48704;50.534;6.442;2023-07-02T05:33:15;40.10;;;17.40;;
62633;SDS011;48704;50.534;6.442;2023-07-02T05:35:40;41.72;;;16.70;;
62633;SDS011;48704;50.534;6.442;2023-07-02T05:38:06;40.47;;;16.52;;
62633;SDS011;48704;50.534;6.442;2023-07-02T05:40:31;44.28;;;17.48;;
62633;SDS011;48704;50.534;6.442;2023-07-02T05:42:56;44.17;;;18.60;;
62633;SDS011;48704;50.534;6.442;2023-07-02T05:45:22;40.13;;;16.15;;
62633;SDS011;48704;50.534;6.442;2023-07-02T05:47:48;37.90;;;16.63;;
62633;SDS011;48704;50.534;6.442;2023-07-02T05:50:14;40.35;;;16.95;;
62633;SDS011;48704;50.534;6.442;2023-07-02T05:52:39;46.75;;;17.90;;
62633;SDS011;48704;50.534;6.442;2023-07-02T05:55:05;38.10;;;17.30;;
62633;SDS011;48704;50.534;6.442;2023-07-02T05:57:32;45.38;;;17.13;;
62633;SDS011;48704;50.534;6.442;2023-07-02T05:59:57;47.20;;;17.40;;
62633;SDS011;48704;50.534;6.442;2023-07-02T06:02:22;44.67;;;18.67;;
62633;SDS011;48704;50.534;6.442;2023-07-02T06:04:48;36.85;;;17.00;;
62633;SDS011;48704;50.534;6.442;2023-07-02T06:07:13;41.63;;;16.73;;
62633;SDS011;48704;50.534;6.442;2023-07-02T06:09:38;48.22;;;17.58;;
62633;SDS011;48704;50.534;6.442;2023-07-02T06:12:04;44.88;;;18.05;;
62633;SDS011;48704;50.534;6.442;2023-07-02T06:14:29;44.70;;;17.88;;
62633;SDS011;48704;50.534;6.442;2023-07-02T06:16:54;40.42;;;17.35;;
62633;SDS011;48704;50.534;6.442;2023-07-02T06:19:22;48.42;;;18.83;;
62633;SDS011;48704;50.534;6.442;2023-07-02T06:21:47;44.55;;;18.15;;
62633;SDS011;48704;50.534;6.442;2023-07-02T06:24:13;41.22;;;17.52;;
62633;SDS011;48704;50.534;6.442;2023-07-02T06:26:38;48.58;;;17.50;;
62633;SDS011;48704;50.534;6.442;2023-07-02T06:29:03;47.55;;;19.00;;
62633;SDS011;48704;50.534;6.442;2023-07-02T06:31:28;44.28;;;17.65;;
62633;SDS011;48704;50.534;6.442;2023-07-02T06:33:54;47.85;;;18.65;;
62633;SDS011;48704;50.534;6.442;2023-07-02T06:36:19;42.78;;;18.05;;
62633;SDS011;48704;50.534;6.442;2023-07-02T06:38:44;46.50;;;18.17;;
62633;SDS011;48704;50.534;6.442;2023-07-02T06:41:10;44.05;;;17.95;;
62633;SDS011;48704;50.534;6.442;2023-07-02T06:43:35;43.42;;;17.73;;
62633;SDS011;48704;50.534;6.442;2023-07-02T06:46:01;44.47;;;17.75;;
62633;SDS011;48704;50.534;6.442;2023-07-02T06:48:26;43.17;;;18.58;;
62633;SDS011;48704;50.534;6.442;2023-07-02T06:50:51;47.83;;;18.02;;
62633;SDS011;48704;50.534;6.442;2023-07-02T06:53:16;40.60;;;16.92;;
62633;SDS011;48704;50.534;6.442;2023-07-02T06:55:42;42.47;;;18.35;;
62633;SDS011;48704;50.534;6.442;2023-07-02T06:58:07;42.85;;;16.77;;
62633;SDS011;48704;50.534;6.442;2023-07-02T07:00:33;43.22;;;18.45;;
62633;SDS011;48704;50.534;6.442;2023-07-02T07:03:02;40.47;;;17.58;;
62633;SDS011;48704;50.534;6.442;2023-07-02T07:05:29;38.38;;;16.55;;
62633;SDS011;48704;50.534;6.442;2023-07-02T07:07:56;40.05;;;15.68;;
62633;SDS011;48704;50.534;6.442;2023-07-02T07:10:21;42.30;;;17.02;;
62633;SDS011;48704;50.534;6.442;2023-07-02T07:12:46;43.13;;;16.98;;
62633;SDS011;48704;50.534;6.442;2023-07-02T07:15:12;33.50;;;15.35;;
62633;SDS011;48704;50.534;6.442;2023-07-02T07:17:37;36.65;;;16.60;;
62633;SDS011;48704;50.534;6.442;2023-07-02T07:20:02;38.83;;;16.52;;
62633;SDS011;48704;50.534;6.442;2023-07-02T07:22:30;33.22;;;13.60;;
62633;SDS011;48704;50.534;6.442;2023-07-02T07:24:55;37.10;;;16.98;;
62633;SDS011;48704;50.534;6.442;2023-07-02T07:27:20;31.30;;;15.45;;
62633;SDS011;48704;50.534;6.442;2023-07-02T07:29:46;34.05;;;15.27;;
62633;SDS011;48704;50.534;6.442;2023-07-02T07:32:11;42.00;;;15.18;;
62633;SDS011;48704;50.534;6.442;2023-07-02T07:34:36;32.28;;;14.00;;
62633;SDS011;48704;50.534;6.442;2023-07-02T07:37:02;34.05;;;14.45;;
62633;SDS011;48704;50.534;6.442;2023-07-02T07:39:27;31.90;;;13.07;;
62633;SDS011;48704;50.534;6.442;2023-07-02T07:41:52;37.50;;;14.32;;
62633;SDS011;48704;50.534;6.442;2023-07-02T07:44:18;29.05;;;13.98;;
62633;SDS011;48704;50.534;6.442;2023-07-02T07:46:43;40.15;;;14.45;;
62633;SDS011;48704;50.534;6.442;2023-07-02T07:49:08;32.30;;;13.75;;
62633;SDS011;48704;50.534;6.442;2023-07-02T07:51:34;30.90;;;13.50;;
62633;SDS011;48704;50.534;6.442;2023-07-02T07:54:00;34.20;;;15.07;;
62633;SDS011;48704;50.534;6.442;2023-07-02T07:56:26;28.40;;;13.30;;
62633;SDS011;48704;50.534;6.442;2023-07-02T07:58:51;33.33;;;13.25;;
62633;SDS011;48704;50.534;6.442;2023-07-02T08:01:16;23.88;;;12.18;;
62633;SDS011;48704;50.534;6.442;2023-07-02T08:03:42;29.27;;;13.00;;
62633;SDS011;48704;50.534;6.442;2023-07-02T08:06:07;35.25;;;14.38;;
62633;SDS011;48704;50.534;6.442;2023-07-02T08:08:32;28.75;;;12.68;;
62633;SDS011;48704;50.534;6.442;2023-07-02T08:10:57;28.58;;;11.63;;
62633;SDS011;48704;50.534;6.442;2023-07-02T08:13:23;29.23;;;12.90;;
62633;SDS011;48704;50.534;6.442;2023-07-02T08:15:48;32.45;;;13.20;;
62633;SDS011;48704;50.534;6.442;2023-07-02T08:18:13;27.73;;;13.40;;
62633;SDS011;48704;50.534;6.442;2023-07-02T08:20:39;28.73;;;12.13;;
62633;SDS011;48704;50.534;6.442;2023-07-02T08:23:04;27.00;;;12.77;;
62633;SDS011;48704;50.534;6.442;2023-07-02T08:25:29;30.88;;;13.00;;
62633;SDS011;48704;50.534;6.442;2023-07-02T08:27:55;25.00;;;11.50;;
62633;SDS011;48704;50.534;6.442;2023-07-02T08:30:20;29.42;;;13.02;;
62633;SDS011;48704;50.534;6.442;2023-07-02T08:32:46;23.50;;;11.57;;
62633;SDS011;48704;50.534;6.442;2023-07-02T08:35:11;24.15;;;11.77;;
62633;SDS011;48704;50.534;6.442;2023-07-02T08:37:37;26.05;;;11.70;;
62633;SDS011;48704;50.534;6.442;2023-07-02T08:40:02;24.35;;;11.55;;
62633;SDS011;48704;50.534;6.442;2023-07-02T08:42:29;24.08;;;11.48;;
62633;SDS011;48704;50.534;6.442;2023-07-02T08:44:55;24.23;;;11.15;;
62633;SDS011;48704;50.534;6.442;2023-07-02T08:47:22;22.88;;;11.05;;
62633;SDS011;48704;50.534;6.442;2023-07-02T08:49:48;23.48;;;10.63;;
62633;SDS011;48704;50.534;6.442;2023-07-02T08:52:13;26.40;;;11.55;;
62633;SDS011;48704;50.534;6.442;2023-07-02T08:54:38;26.38;;;10.77;;
62633;SDS011;48704;50.534;6.442;2023-07-02T08:57:04;29.88;;;12.20;;
62633;SDS011;48704;50.534;6.442;2023-07-02T08:59:30;27.10;;;11.13;;
62633;SDS011;48704;50.534;6.442;2023-07-02T09:01:56;30.23;;;12.50;;
62633;SDS011;48704;50.534;6.442;2023-07-02T09:04:22;29.60;;;12.65;;
62633;SDS011;48704;50.534;6.442;2023-07-02T09:07:03;25.45;;;10.93;;
62633;SDS011;48704;50.534;6.442;2023-07-02T09:09:32;24.90;;;10.18;;
62633;SDS011;48704;50.534;6.442;2023-07-02T09:11:58;20.17;;;10.05;;
62633;SDS011;48704;50.534;6.442;2023-07-02T09:14:27;25.23;;;10.90;;
62633;SDS011;48704;50.534;6.442;2023-07-02T09:19:28;25.70;;;10.13;;
62633;SDS011;48704;50.534;6.442;2023-07-02T09:21:53;24.40;;;11.05;;
62633;SDS011;48704;50.534;6.442;2023-07-02T09:24:23;26.40;;;12.05;;
62633;SDS011;48704;50.534;6.442;2023-07-02T09:26:50;22.27;;;10.20;;
62633;SDS011;48704;50.534;6.442;2023-07-02T09:29:23;25.40;;;11.18;;
62633;SDS011;48704;50.534;6.442;2023-07-02T09:31:57;20.17;;;10.85;;
62633;SDS011;48704;50.534;6.442;2023-07-02T09:34:26;26.05;;;12.40;;
62633;SDS011;48704;50.534;6.442;2023-07-02T09:36:53;23.70;;;10.75;;
62633;SDS011;48704;50.534;6.442;2023-07-02T09:39:19;25.15;;;11.60;;
62633;SDS011;48704;50.534;6.442;2023-07-02T09:41:48;28.63;;;11.95;;
62633;SDS011;48704;50.534;6.442;2023-07-02T09:44:15;22.25;;;11.02;;
62633;SDS011;48704;50.534;6.442;2023-07-02T09:46:44;27.17;;;11.70;;
62633;SDS011;48704;50.534;6.442;2023-07-02T09:49:33;26.40;;;11.45;;
62633;SDS011;48704;50.534;6.442;2023-07-02T09:52:02;26.35;;;11.77;;
62633;SDS011;48704;50.534;6.442;2023-07-02T09:54:29;24.90;;;11.00;;
62633;SDS011;48704;50.534;6.442;2023-07-02T09:56:55;26.77;;;11.45;;
62633;SDS011;48704;50.534;6.442;2023-07-02T09:59:24;26.75;;;11.18;;
62633;SDS011;48704;50.534;6.442;2023-07-02T10:01:50;29.42;;;11.27;;
62633;SDS011;48704;50.534;6.442;2023-07-02T10:04:17;28.60;;;11.40;;
62633;SDS011;48704;50.534;6.442;2023-07-02T10:06:44;26.50;;;11.90;;
62633;SDS011;48704;50.534;6.442;2023-07-02T10:09:11;26.27;;;11.73;;
62633;SDS011;48704;50.534;6.442;2023-07-02T10:11:36;31.30;;;11.65;;
62633;SDS011;48704;50.534;6.442;2023-07-02T10:14:02;28.73;;;11.75;;
62633;SDS011;48704;50.534;6.442;2023-07-02T10:16:27;26.00;;;12.13;;
62633;SDS011;48704;50.534;6.442;2023-07-02T10:18:53;26.83;;;11.55;;
62633;SDS011;48704;50.534;6.442;2023-07-02T10:21:19;29.85;;;10.98;;
62633;SDS011;48704;50.534;6.442;2023-07-02T10:23:44;22.83;;;11.95;;
62633;SDS011;48704;50.534;6.442;2023-07-02T10:26:13;23.33;;;10.98;;
62633;SDS011;48704;50.534;6.442;2023-07-02T10:28:40;25.27;;;11.45;;
62633;SDS011;48704;50.534;6.442;2023-07-02T10:31:17;25.23;;;11.88;;
62633;SDS011;48704;50.534;6.442;2023-07-02T10:33:46;25.88;;;11.77;;
62633;SDS011;48704;50.534;6.442;2023-07-02T10:36:21;28.23;;;11.32;;
62633;SDS011;48704;50.534;6.442;2023-07-02T10:38:48;23.80;;;12.02;;
62633;SDS011;48704;50.534;6.442;2023-07-02T10:41:24;25.30;;;10.82;;
62633;SDS011;48704;50.534;6.442;2023-07-02T10:43:51;27.40;;;11.15;;
62633;SDS011;48704;50.534;6.442;2023-07-02T10:46:20;25.38;;;10.77;;
62633;SDS011;48704;50.534;6.442;2023-07-02T10:48:56;28.65;;;10.68;;
62633;SDS011;48704;50.534;6.442;2023-07-02T10:51:22;23.05;;;10.52;;
62633;SDS011;48704;50.534;6.442;2023-07-02T10:53:58;24.63;;;11.02;;
62633;SDS011;48704;50.534;6.442;2023-07-02T10:56:24;24.10;;;10.95;;
62633;SDS011;48704;50.534;6.442;2023-07-02T10:58:51;28.23;;;12.00;;
62633;SDS011;48704;50.534;6.442;2023-07-02T11:04:01;22.98;;;10.88;;
62633;SDS011;48704;50.534;6.442;2023-07-02T11:06:29;21.90;;;10.43;;
62633;SDS011;48704;50.534;6.442;2023-07-02T11:08:56;27.20;;;11.13;;
62633;SDS011;48704;50.534;6.442;2023-07-02T11:11:22;25.02;;;9.73;;
62633;SDS011;48704;50.534;6.442;2023-07-02T11:13:48;23.92;;;10.50;;
62633;SDS011;48704;50.534;6.442;2023-07-02T11:18:51;26.35;;;10.60;;
62633;SDS011;48704;50.534;6.442;2023-07-02T11:21:19;23.95;;;10.20;;
62633;SDS011;48704;50.534;6.442;2023-07-02T11:23:44;25.63;;;10.77;;
62633;SDS011;48704;50.534;6.442;2023-07-02T11:26:09;24.75;;;10.20;;
62633;SDS011;48704;50.534;6.442;2023-07-02T11:28:35;21.33;;;9.68;;
62633;SDS011;48704;50.534;6.442;2023-07-02T11:31:00;23.95;;;10.57;;
62633;SDS011;48704;50.534;6.442;2023-07-02T11:33:38;21.92;;;10.07;;
62633;SDS011;48704;50.534;6.442;2023-07-02T11:36:04;26.27;;;10.40;;
62633;SDS011;48704;50.534;6.442;2023-07-02T11:38:30;21.42;;;9.77;;
62633;SDS011;48704;50.534;6.442;2023-07-02T11:40:56;27.50;;;10.18;;
62633;SDS011;48704;50.534;6.442;2023-07-02T11:43:21;24.38;;;10.23;;
62633;SDS011;48704;50.534;6.442;2023-07-02T11:45:46;22.42;;;10.80;;
62633;SDS011;48704;50.534;6.442;2023-07-02T11:48:12;26.15;;;11.10;;
62633;SDS011;48704;50.534;6.442;2023-07-02T11:50:37;28.85;;;11.55;;
62633;SDS011;48704;50.534;6.442;2023-07-02T11:53:03;22.63;;;10.25;;
62633;SDS011;48704;50.534;6.442;2023-07-02T11:55:28;21.83;;;10.57;;
62633;SDS011;48704;50.534;6.442;2023-07-02T11:57:53;24.17;;;10.93;;
62633;SDS011;48704;50.534;6.442;2023-07-02T12:00:19;20.90;;;9.13;;
62633;SDS011;48704;50.534;6.442;2023-07-02T12:02:44;23.08;;;10.25;;
62633;SDS011;48704;50.534;6.442;2023-07-02T12:05:10;21.50;;;9.73;;
62633;SDS011;48704;50.534;6.442;2023-07-02T12:07:35;23.92;;;10.15;;
62633;SDS011;48704;50.534;6.442;2023-07-02T12:10:00;26.15;;;11.13;;
62633;SDS011;48704;50.534;6.442;2023-07-02T12:12:26;27.25;;;10.23;;
62633;SDS011;48704;50.534;6.442;2023-07-02T12:14:51;24.73;;;9.98;;
62633;SDS011;48704;50.534;6.442;2023-07-02T12:17:16;22.02;;;10.70;;
62633;SDS011;48704;50.534;6.442;2023-07-02T12:19:42;26.77;;;11.20;;
62633;SDS011;48704;50.534;6.442;2023-07-02T12:22:07;24.88;;;10.05;;
62633;SDS011;48704;50.534;6.442;2023-07-02T12:24:33;22.35;;;9.98;;
62633;SDS011;48704;50.534;6.442;2023-07-02T12:26:58;22.48;;;10.10;;
62633;SDS011;48704;50.534;6.442;2023-07-02T12:29:23;20.80;;;10.52;;
62633;SDS011;48704;50.534;6.442;2023-07-02T12:31:48;22.90;;;10.13;;
62633;SDS011;48704;50.534;6.442;2023-07-02T12:34:14;26.48;;;10.88;;
62633;SDS011;48704;50.534;6.442;2023-07-02T12:36:39;21.75;;;10.40;;
62633;SDS011;48704;50.534;6.442;2023-07-02T12:39:05;23.27;;;9.98;;
62633;SDS011;48704;50.534;6.442;2023-07-02T12:41:31;24.15;;;9.65;;
62633;SDS011;48704;50.534;6.442;2023-07-02T12:43:56;20.38;;;9.00;;
62633;SDS011;48704;50.534;6.442;2023-07-02T12:46:22;21.13;;;10.05;;
62633;SDS011;48704;50.534;6.442;2023-07-02T12:48:47;22.85;;;9.23;;
62633;SDS011;48704;50.534;6.442;2023-07-02T12:51:12;21.73;;;10.23;;
62633;SDS011;48704;50.534;6.442;2023-07-02T12:53:37;24.63;;;10.20;;
62633;SDS011;48704;50.534;6.442;2023-07-02T12:56:03;25.50;;;11.05;;
62633;SDS011;48704;50.534;6.442;2023-07-02T12:58:28;28.58;;;10.45;;
62633;SDS011;48704;50.534;6.442;2023-07-02T13:00:54;27.42;;;10.82;;
62633;SDS011;48704;50.534;6.442;2023-07-02T13:03:20;21.00;;;10.30;;
62633;SDS011;48704;50.534;6.442;2023-07-02T13:05:45;24.73;;;10.05;;
62633;SDS011;48704;50.534;6.442;2023-07-02T13:08:10;22.65;;;10.48;;
62633;SDS011;48704;50.534;6.442;2023-07-02T13:10:37;20.83;;;9.85;;
62633;SDS011;48704;50.534;6.442;2023-07-02T13:13:02;22.35;;;10.18;;
62633;SDS011;48704;50.534;6.442;2023-07-02T13:15:27;22.05;;;10.15;;
62633;SDS011;48704;50.534;6.442;2023-07-02T13:17:53;27.08;;;10.95;;
62633;SDS011;48704;50.534;6.442;2023-07-02T13:20:18;24.10;;;10.63;;
62633;SDS011;48704;50.534;6.442;2023-07-02T13:22:43;23.67;;;9.80;;
62633;SDS011;48704;50.534;6.442;2023-07-02T13:25:09;18.10;;;9.50;;
62633;SDS011;48704;50.534;6.442;2023-07-02T13:27:34;20.80;;;10.25;;
62633;SDS011;48704;50.534;6.442;2023-07-02T13:29:59;23.30;;;10.55;;
62633;SDS011;48704;50.534;6.442;2023-07-02T13:32:25;23.15;;;9.52;;
62633;SDS011;48704;50.534;6.442;2023-07-02T13:34:51;23.88;;;9.63;;
62633;SDS011;48704;50.534;6.442;2023-07-02T13:37:16;22.13;;;10.07;;
62633;SDS011;48704;50.534;6.442;2023-07-02T13:39:47;22.60;;;9.95;;
62633;SDS011;48704;50.534;6.442;2023-07-02T13:42:14;25.35;;;11.30;;
62633;SDS011;48704;50.534;6.442;2023-07-02T13:44:40;24.15;;;10.27;;
62633;SDS011;48704;50.534;6.442;2023-07-02T13:47:06;19.48;;;8.93;;
62633;SDS011;48704;50.534;6.442;2023-07-02T13:49:32;19.95;;;8.82;;
62633;SDS011;48704;50.534;6.442;2023-07-02T13:51:57;19.98;;;9.02;;
62633;SDS011;48704;50.534;6.442;2023-07-02T13:54:23;19.15;;;8.98;;
62633;SDS011;48704;50.534;6.442;2023-07-02T13:56:48;22.50;;;9.07;;
62633;SDS011;48704;50.534;6.442;2023-07-02T13:59:14;23.38;;;10.40;;
62633;SDS011;48704;50.534;6.442;2023-07-02T14:01:41;26.33;;;9.55;;
62633;SDS011;48704;50.534;6.442;2023-07-02T14:04:06;24.75;;;10.52;;
62633;SDS011;48704;50.534;6.442;2023-07-02T14:06:32;23.83;;;10.00;;
62633;SDS011;48704;50.534;6.442;2023-07-02T14:08:57;24.55;;;10.55;;
62633;SDS011;48704;50.534;6.442;2023-07-02T14:11:23;20.30;;;9.52;;
62633;SDS011;48704;50.534;6.442;2023-07-02T14:13:49;18.60;;;9.40;;
62633;SDS011;48704;50.534;6.442;2023-07-02T14:16:15;22.70;;;10.50;;
62633;SDS011;48704;50.534;6.442;2023-07-02T14:18:40;23.13;;;9.52;;
62633;SDS011;48704;50.534;6.442;2023-07-02T14:21:06;22.30;;;9.57;;
62633;SDS011;48704;50.534;6.442;2023-07-02T14:23:32;22.63;;;9.23;;